Time;durP1;ratioP1;P1;durP2;ratioP2;P2;SDS_P1;SDS_P2;PMS_P1;PMS_P2;Temp;Humidity;BMP_temperature;BMP_pressure;BME280_temperature;BME280_humidity;BME280_pressure;Samples;Min_cycle;Max_cycle;Signal;HPM_P1;HPM_P2
2023/08/19 00:00:52;;;;;;;38.55;35.40;;;20.80;99.90;;;;;;5087412;28;20518;-76
2023/08/19 00:03:17;;;;;;;37.10;33.88;;;20.90;99.90;;;;;;5082762;28;20118;-76
2023/08/19 00:05:44;;;;;;;36.80;33.70;;;20.80;99.90;;;;;;5086704;28;20048;-76
2023/08/19 00:08:10;;;;;;;38.35;35.15;;;20.90;99.90;;;;;;5082927;28;20461;-76
2023/08/19 00:10:36;;;;;;;36.35;33.25;;;20.90;99.90;;;;;;5087008;28;20044;-76
2023/08/19 00:13:02;;;;;;;36.65;33.53;;;20.90;99.90;;;;;;5079696;28;20047;-76
2023/08/19 00:15:28;;;;;;;36.15;33.15;;;20.90;99.90;;;;;;5081612;28;20366;-76
2023/08/19 00:17:54;;;;;;;34.75;31.77;;;20.90;99.90;;;;;;5084342;28;20040;-75
2023/08/19 00:20:21;;;;;;;35.42;32.42;;;20.90;99.90;;;;;;5085814;28;20518;-76
2023/08/19 00:22:47;;;;;;;36.13;32.95;;;20.90;99.90;;;;;;5085693;28;20050;-75
2023/08/19 00:25:12;;;;;;;36.53;33.42;;;20.90;99.90;;;;;;5068094;28;20580;-76
2023/08/19 00:27:38;;;;;;;36.88;33.63;;;20.90;99.90;;;;;;5068312;28;20537;-76
2023/08/19 00:30:04;;;;;;;34.55;31.85;;;20.90;99.90;;;;;;5084834;28;20035;-76
2023/08/19 00:32:31;;;;;;;35.88;33.03;;;21.00;99.90;;;;;;5069319;28;20036;-76
2023/08/19 00:34:56;;;;;;;34.65;31.85;;;20.90;99.90;;;;;;5068499;28;20283;-76
2023/08/19 00:37:22;;;;;;;35.00;32.10;;;21.00;99.90;;;;;;5066630;28;20138;-76
2023/08/19 00:39:48;;;;;;;36.17;33.17;;;20.90;99.90;;;;;;5084716;28;20044;-76
2023/08/19 00:42:14;;;;;;;34.20;31.50;;;21.00;99.90;;;;;;5083156;28;20167;-75
2023/08/19 00:44:40;;;;;;;33.30;30.67;;;20.90;99.90;;;;;;5084330;28;20095;-76
2023/08/19 00:47:06;;;;;;;35.10;32.13;;;20.90;99.90;;;;;;5065803;28;20039;-76
2023/08/19 00:49:32;;;;;;;33.22;30.33;;;20.90;99.90;;;;;;5083889;28;20510;-76
2023/08/19 00:52:00;;;;;;;34.55;31.77;;;21.00;99.90;;;;;;5084206;28;20104;-76
2023/08/19 00:54:26;;;;;;;34.10;31.30;;;21.00;99.90;;;;;;5082813;28;20398;-76
2023/08/19 00:56:52;;;;;;;33.75;30.85;;;20.90;99.90;;;;;;5082702;28;20039;-76
2023/08/19 00:59:19;;;;;;;31.83;29.08;;;21.00;99.90;;;;;;5068710;28;20054;-76
2023/08/19 01:01:44;;;;;;;32.78;29.92;;;20.90;99.90;;;;;;5084811;28;20050;-76
2023/08/19 01:04:11;;;;;;;32.97;30.38;;;20.90;99.90;;;;;;5067013;28;20055;-76
2023/08/19 01:06:47;;;;;;;31.58;29.05;;;20.90;99.90;;;;;;5063853;28;20066;-76
2023/08/19 01:09:25;;;;;;;32.90;30.02;;;20.90;99.90;;;;;;5062256;28;20044;-76
2023/08/19 01:12:10;;;;;;;30.20;27.90;;;20.90;99.90;;;;;;5085991;28;20110;-76
2023/08/19 01:14:54;;;;;;;31.08;28.58;;;20.90;99.90;;;;;;5085857;28;20044;-76
2023/08/19 01:17:26;;;;;;;35.50;32.53;;;20.80;99.90;;;;;;5084108;28;20078;-75
2023/08/19 01:19:54;;;;;;;29.90;27.38;;;20.80;99.90;;;;;;5118776;27;20044;-76
2023/08/19 01:22:47;;;;;;;30.17;27.63;;;20.80;99.90;;;;;;5084354;28;20220;-76
2023/08/19 01:25:12;;;;;;;32.00;29.27;;;20.80;99.90;;;;;;5066544;28;20104;-76
2023/08/19 01:27:38;;;;;;;29.83;27.40;;;20.70;99.90;;;;;;5086362;28;20051;-76
2023/08/19 01:30:04;;;;;;;31.60;29.10;;;20.70;99.90;;;;;;5082396;28;20051;-76
2023/08/19 01:32:31;;;;;;;29.85;27.45;;;20.70;99.90;;;;;;5068409;28;20036;-75
2023/08/19 01:34:57;;;;;;;33.15;30.38;;;20.60;99.90;;;;;;5068773;28;20047;-76
2023/08/19 01:37:47;;;;;;;29.60;27.10;;;20.60;99.90;;;;;;5082684;28;20107;-76
2023/08/19 01:40:14;;;;;;;29.35;26.95;;;20.60;99.90;;;;;;5064891;28;20047;-76
2023/08/19 01:42:41;;;;;;;31.85;29.15;;;20.60;99.90;;;;;;5068550;28;20050;-75
2023/08/19 01:45:11;;;;;;;32.95;30.25;;;20.60;99.90;;;;;;5077948;28;20031;-75
2023/08/19 01:47:37;;;;;;;;;;;20.60;99.90;;;;;;5067339;28;20040;-76
2023/08/19 01:50:04;;;;;;;32.35;29.67;;;20.60;99.90;;;;;;5084083;28;19920;-75
2023/08/19 01:52:31;;;;;;;33.78;30.70;;;20.50;99.90;;;;;;5081348;28;20090;-76
2023/08/19 01:54:56;;;;;;;30.30;27.92;;;20.60;99.90;;;;;;5064338;28;20468;-76
2023/08/19 01:57:25;;;;;;;38.30;34.70;;;20.60;99.90;;;;;;5079856;28;20142;-76
2023/08/19 01:59:55;;;;;;;32.25;29.52;;;20.50;99.90;;;;;;5067047;28;20043;-75
2023/08/19 02:02:24;;;;;;;30.48;27.90;;;20.50;99.90;;;;;;5081197;28;20729;-75
2023/08/19 02:04:50;;;;;;;38.92;35.42;;;20.50;99.90;;;;;;5084927;28;20100;-75
2023/08/19 02:07:16;;;;;;;41.53;37.53;;;20.50;99.90;;;;;;5064428;28;20036;-76
2023/08/19 02:09:46;;;;;;;32.35;29.55;;;20.50;99.90;;;;;;5082310;28;20513;-75
2023/08/19 02:12:12;;;;;;;31.25;28.58;;;20.50;99.90;;;;;;5080046;28;20059;-76
2023/08/19 02:14:38;;;;;;;43.00;38.45;;;20.40;99.90;;;;;;5066447;28;20050;-75
2023/08/19 02:17:10;;;;;;;31.38;28.67;;;20.40;99.90;;;;;;5063878;28;20028;-76
2023/08/19 02:19:35;;;;;;;34.08;31.27;;;20.30;99.90;;;;;;5061782;28;20032;-76
2023/08/19 02:22:02;;;;;;;35.33;32.17;;;20.40;99.90;;;;;;5066382;28;20043;-75
2023/08/19 02:24:28;;;;;;;35.88;32.63;;;20.40;99.90;;;;;;5065997;28;20048;-75
2023/08/19 02:26:54;;;;;;;39.88;36.00;;;20.30;99.90;;;;;;5083759;28;20043;-75
2023/08/19 02:29:20;;;;;;;31.17;28.58;;;20.30;99.90;;;;;;5095662;28;20092;-75
2023/08/19 02:31:47;;;;;;;35.72;32.38;;;20.30;99.90;;;;;;5067156;28;20065;-76
2023/08/19 02:34:13;;;;;;;31.20;28.58;;;20.30;99.90;;;;;;5085040;28;20044;-75
2023/08/19 02:36:39;;;;;;;31.98;29.17;;;20.30;99.90;;;;;;5081836;28;20378;-76
2023/08/19 02:39:05;;;;;;;30.33;27.73;;;20.30;99.90;;;;;;5083186;28;20035;-75
2023/08/19 02:41:30;;;;;;;33.13;30.27;;;20.40;99.90;;;;;;5118562;27;20044;-76
2023/08/19 02:43:56;;;;;;;31.65;28.85;;;20.40;99.90;;;;;;5062347;28;20104;-75
2023/08/19 02:46:22;;;;;;;32.75;29.83;;;20.40;99.90;;;;;;5064871;28;20054;-77
2023/08/19 02:48:48;;;;;;;31.92;29.23;;;20.40;99.90;;;;;;5083496;28;20112;-75
2023/08/19 02:51:14;;;;;;;30.85;28.15;;;20.50;99.90;;;;;;5065745;28;20035;-76
2023/08/19 02:53:39;;;;;;;30.70;28.10;;;20.50;99.90;;;;;;5080772;28;20127;-75
2023/08/19 02:56:08;;;;;;;31.23;28.55;;;20.50;99.90;;;;;;5081620;28;20035;-75
2023/08/19 02:58:34;;;;;;;29.27;26.75;;;20.50;99.90;;;;;;5118062;27;20048;-76
2023/08/19 03:01:00;;;;;;;29.58;26.77;;;20.50;99.90;;;;;;5081676;28;20100;-76
2023/08/19 03:03:27;;;;;;;29.70;27.13;;;20.50;99.90;;;;;;5081948;28;20054;-76
2023/08/19 03:05:58;;;;;;;30.42;27.83;;;20.60;99.90;;;;;;5060821;28;20047;-76
2023/08/19 03:08:23;;;;;;;29.75;27.20;;;20.50;99.90;;;;;;5082315;28;20482;-75
2023/08/19 03:10:49;;;;;;;29.25;26.65;;;20.60;99.90;;;;;;5118549;27;20048;-75
2023/08/19 03:13:15;;;;;;;29.02;26.60;;;20.60;99.90;;;;;;5076229;28;20380;-76
2023/08/19 03:15:41;;;;;;;28.38;25.85;;;20.60;99.90;;;;;;5084803;28;20032;-75
2023/08/19 03:18:07;;;;;;;30.77;27.90;;;20.60;99.90;;;;;;5078903;28;20402;-75
2023/08/19 03:20:33;;;;;;;27.83;25.33;;;20.60;99.90;;;;;;5082070;28;20382;-76
2023/08/19 03:22:59;;;;;;;29.15;26.63;;;20.60;99.90;;;;;;5065145;28;20043;-75
2023/08/19 03:25:24;;;;;;;28.25;25.85;;;20.60;99.90;;;;;;5082869;28;20074;-76
2023/08/19 03:27:50;;;;;;;28.83;26.00;;;20.60;99.90;;;;;;5078642;28;20118;-75
2023/08/19 03:30:16;;;;;;;28.98;26.48;;;20.60;99.90;;;;;;5081501;28;20119;-76
2023/08/19 03:32:42;;;;;;;26.23;23.92;;;20.50;99.90;;;;;;5085470;28;20067;-76
2023/08/19 03:35:11;;;;;;;26.85;24.55;;;20.60;99.90;;;;;;5085970;28;20043;-75
2023/08/19 03:37:36;;;;;;;27.53;25.23;;;20.50;99.90;;;;;;5104547;28;20059;-75
2023/08/19 03:40:03;;;;;;;28.85;26.25;;;20.50;99.90;;;;;;5066532;28;20298;-76
2023/08/19 03:42:28;;;;;;;25.77;23.58;;;20.50;99.90;;;;;;5120003;27;20051;-75
2023/08/19 03:44:57;;;;;;;27.77;25.30;;;20.50;99.90;;;;;;5088375;28;20047;-76
2023/08/19 03:47:23;;;;;;;27.35;24.83;;;20.50;99.90;;;;;;5085562;28;20040;-75
2023/08/19 03:49:49;;;;;;;27.13;24.63;;;20.40;99.90;;;;;;5084746;28;20131;-76
2023/08/19 03:52:14;;;;;;;27.13;24.73;;;20.40;99.90;;;;;;5112563;27;20051;-75
2023/08/19 03:54:46;;;;;;;26.15;23.80;;;20.40;99.90;;;;;;5061649;28;20054;-76
2023/08/19 03:57:12;;;;;;;25.73;23.60;;;20.40;99.90;;;;;;5081951;28;20036;-75
2023/08/19 03:59:41;;;;;;;26.63;24.27;;;20.40;99.90;;;;;;5083154;28;20091;-75
2023/08/19 04:02:10;;;;;;;24.63;22.65;;;20.40;99.90;;;;;;5079148;28;20572;-75
2023/08/19 04:04:36;;;;;;;25.20;23.05;;;20.40;99.90;;;;;;5084648;28;20513;-76
2023/08/19 04:07:02;;;;;;;24.27;22.25;;;20.40;99.90;;;;;;5085885;28;20134;-75
2023/08/19 04:09:27;;;;;;;25.23;22.98;;;20.40;99.90;;;;;;5078256;28;20130;-76
2023/08/19 04:11:55;;;;;;;25.25;22.90;;;20.40;99.90;;;;;;5065445;28;20055;-76
2023/08/19 04:14:21;;;;;;;24.40;22.20;;;20.40;99.90;;;;;;5084397;28;20051;-76
2023/08/19 04:16:46;;;;;;;27.40;24.85;;;20.40;99.90;;;;;;5087162;28;20100;-75
2023/08/19 04:19:12;;;;;;;24.00;21.90;;;20.40;99.90;;;;;;5083467;28;20036;-75
2023/08/19 04:21:38;;;;;;;23.35;21.27;;;20.30;99.90;;;;;;5085962;28;20046;-76
2023/08/19 04:24:04;;;;;;;24.13;22.02;;;20.30;99.90;;;;;;5086245;28;20118;-76
2023/08/19 04:26:30;;;;;;;24.27;22.13;;;20.30;99.90;;;;;;5083929;28;20130;-75
2023/08/19 04:28:55;;;;;;;27.67;24.73;;;20.30;99.90;;;;;;5068993;28;20134;-76
2023/08/19 04:31:21;;;;;;;24.00;21.75;;;20.30;99.90;;;;;;5068297;28;20047;-75
2023/08/19 04:33:47;;;;;;;24.23;22.30;;;20.30;99.90;;;;;;5069520;28;20577;-75
2023/08/19 04:36:13;;;;;;;23.85;21.65;;;20.30;99.90;;;;;;5062015;28;20184;-75
2023/08/19 04:38:38;;;;;;;24.27;22.08;;;20.30;99.90;;;;;;5063968;28;20120;-76
2023/08/19 04:41:04;;;;;;;22.23;20.27;;;20.30;99.90;;;;;;5082156;28;20039;-76
2023/08/19 04:43:30;;;;;;;22.90;20.90;;;20.30;99.90;;;;;;5083227;28;20046;-76
2023/08/19 04:45:56;;;;;;;22.92;20.95;;;20.30;99.90;;;;;;5086761;28;20036;-76
2023/08/19 04:48:23;;;;;;;22.15;20.25;;;20.40;99.90;;;;;;5065011;28;20032;-76
2023/08/19 04:50:49;;;;;;;22.33;20.33;;;20.40;99.90;;;;;;5083844;28;20035;-75
2023/08/19 04:53:15;;;;;;;21.38;19.48;;;20.40;99.90;;;;;;5084628;28;20390;-76
2023/08/19 04:55:41;;;;;;;21.70;19.67;;;20.40;99.90;;;;;;5077459;28;20054;-76
2023/08/19 04:58:07;;;;;;;21.70;19.73;;;20.50;99.90;;;;;;5066060;28;20035;-75
2023/08/19 05:00:37;;;;;;;21.15;19.30;;;20.60;99.90;;;;;;5096857;28;20051;-76
2023/08/19 05:03:03;;;;;;;21.38;19.30;;;20.60;99.90;;;;;;5078072;28;20047;-75
2023/08/19 05:05:29;;;;;;;21.02;19.23;;;20.60;99.90;;;;;;5082572;28;20070;-76
2023/08/19 05:07:54;;;;;;;20.95;18.95;;;20.60;99.90;;;;;;5085989;28;20039;-75
2023/08/19 05:10:20;;;;;;;20.88;18.80;;;20.70;99.90;;;;;;5065211;28;20051;-75
2023/08/19 05:12:46;;;;;;;20.20;18.50;;;20.70;99.90;;;;;;5118450;27;20397;-76
2023/08/19 05:15:12;;;;;;;20.35;18.52;;;20.70;99.90;;;;;;5083393;28;20059;-76
2023/08/19 05:17:38;;;;;;;20.70;18.73;;;20.80;99.90;;;;;;5083184;28;20047;-76
2023/08/19 05:20:04;;;;;;;19.70;17.75;;;20.80;99.90;;;;;;5080828;28;20047;-76
2023/08/19 05:22:33;;;;;;;19.52;17.63;;;20.80;99.90;;;;;;5078427;28;20540;-76
2023/08/19 05:24:59;;;;;;;19.83;18.00;;;20.80;99.90;;;;;;5063411;28;20043;-76
2023/08/19 05:27:28;;;;;;;19.30;17.60;;;20.90;99.90;;;;;;5057686;28;20092;-76
2023/08/19 05:29:54;;;;;;;18.30;16.70;;;20.90;99.90;;;;;;5085535;28;20039;-76
2023/08/19 05:32:19;;;;;;;17.70;15.98;;;20.90;99.90;;;;;;5082508;28;20054;-76
2023/08/19 05:34:48;;;;;;;17.95;16.25;;;20.90;99.90;;;;;;5065907;28;20070;-76
2023/08/19 05:37:14;;;;;;;18.55;16.90;;;20.90;99.90;;;;;;5102271;28;20050;-76
2023/08/19 05:39:40;;;;;;;18.70;16.77;;;20.90;99.90;;;;;;5083313;28;20043;-76
2023/08/19 05:42:06;;;;;;;17.33;15.75;;;20.90;99.90;;;;;;5087085;28;20447;-76
2023/08/19 05:44:32;;;;;;;16.98;15.40;;;20.90;99.90;;;;;;5119655;27;20208;-76
2023/08/19 05:47:01;;;;;;;17.73;15.95;;;20.90;99.90;;;;;;5100052;28;20077;-75
2023/08/19 05:49:27;;;;;;;18.27;16.60;;;20.90;99.90;;;;;;5065188;28;20135;-77
2023/08/19 05:51:53;;;;;;;18.92;17.10;;;21.00;99.90;;;;;;5078422;28;20122;-76
2023/08/19 05:54:19;;;;;;;17.85;16.17;;;21.00;99.90;;;;;;5083056;28;20495;-76
2023/08/19 05:56:44;;;;;;;17.38;15.88;;;21.00;99.90;;;;;;5081925;28;20148;-77
2023/08/19 05:59:10;;;;;;;17.63;16.02;;;21.00;99.90;;;;;;5060721;28;20131;-76
2023/08/19 06:01:36;;;;;;;17.52;15.80;;;21.00;99.90;;;;;;5079318;28;20035;-76
2023/08/19 06:04:02;;;;;;;17.05;14.75;;;21.00;99.90;;;;;;5083132;28;20130;-77
2023/08/19 06:06:28;;;;;;;18.10;16.35;;;21.10;99.90;;;;;;5080955;28;20063;-76
2023/08/19 06:08:54;;;;;;;16.35;14.75;;;21.10;99.90;;;;;;5118810;27;20043;-76
2023/08/19 06:11:20;;;;;;;17.35;15.80;;;21.10;99.90;;;;;;5064977;28;20047;-76
2023/08/19 06:13:46;;;;;;;16.40;14.70;;;21.10;99.90;;;;;;5082653;28;20104;-76
2023/08/19 06:16:15;;;;;;;16.65;15.23;;;21.20;99.90;;;;;;5066559;28;20043;-76
2023/08/19 06:18:41;;;;;;;17.07;15.50;;;21.20;99.90;;;;;;5118012;27;20096;-76
2023/08/19 06:21:09;;;;;;;16.13;14.50;;;21.20;99.90;;;;;;5083710;28;20067;-76
2023/08/19 06:23:35;;;;;;;18.17;16.48;;;21.30;99.90;;;;;;5082366;28;20043;-76
2023/08/19 06:26:01;;;;;;;17.15;15.38;;;21.30;99.90;;;;;;5067881;28;20047;-76
2023/08/19 06:28:27;;;;;;;19.10;17.10;;;21.30;99.90;;;;;;5066880;28;20397;-76
2023/08/19 06:30:53;;;;;;;17.33;15.73;;;21.30;99.90;;;;;;5081746;28;20500;-76
2023/08/19 06:33:19;;;;;;;17.85;16.25;;;21.30;99.90;;;;;;5067653;28;20039;-77
2023/08/19 06:35:50;;;;;;;16.90;15.27;;;21.30;99.90;;;;;;5083954;28;20050;-77
2023/08/19 06:38:21;;;;;;;16.02;14.52;;;21.30;99.90;;;;;;5083084;28;20123;-76
2023/08/19 06:41:05;;;;;;;17.20;15.57;;;21.30;99.90;;;;;;5083202;28;20043;-76
2023/08/19 06:43:33;;;;;;;17.50;15.73;;;21.30;99.90;;;;;;5098544;28;20043;-76
2023/08/19 06:46:01;;;;;;;16.40;14.80;;;21.30;99.90;;;;;;5117926;27;20462;-76
2023/08/19 06:48:27;;;;;;;16.40;14.82;;;21.40;99.90;;;;;;5083135;28;20128;-78
2023/08/19 06:50:54;;;;;;;15.50;13.88;;;21.40;99.90;;;;;;5066021;28;20055;-76
2023/08/19 06:53:21;;;;;;;15.02;13.45;;;21.40;99.90;;;;;;5083376;28;20036;-76
2023/08/19 06:55:59;;;;;;;15.35;13.73;;;21.50;99.90;;;;;;5097590;28;20043;-76
2023/08/19 06:58:29;;;;;;;14.05;12.73;;;21.50;99.90;;;;;;5079421;28;20740;-76
2023/08/19 07:01:00;;;;;;;13.68;12.43;;;21.50;99.90;;;;;;5060662;28;20097;-76
2023/08/19 07:03:32;;;;;;;14.45;12.88;;;21.60;99.90;;;;;;5081593;28;20058;-76
2023/08/19 07:06:00;;;;;;;14.80;13.55;;;21.60;99.90;;;;;;5069041;28;20128;-76
2023/08/19 07:08:30;;;;;;;14.40;13.13;;;21.60;99.90;;;;;;5084277;28;20397;-76
2023/08/19 07:11:00;;;;;;;14.73;13.13;;;21.60;99.90;;;;;;5071957;28;20044;-77
2023/08/19 07:13:27;;;;;;;14.93;13.13;;;21.70;99.90;;;;;;5056868;28;20735;-77
2023/08/19 07:16:00;;;;;;;14.80;13.18;;;21.70;99.90;;;;;;5069341;28;20047;-76
2023/08/19 07:18:30;;;;;;;13.95;12.55;;;21.70;99.90;;;;;;5082014;28;20067;-77
2023/08/19 07:20:56;;;;;;;14.88;13.43;;;21.80;99.90;;;;;;5082499;28;20071;-77
2023/08/19 07:23:23;;;;;;;14.68;13.20;;;21.80;99.90;;;;;;5059860;28;20119;-77
2023/08/19 07:25:50;;;;;;;13.55;12.25;;;21.80;99.90;;;;;;5082065;28;20055;-77
2023/08/19 07:28:19;;;;;;;13.93;12.40;;;21.90;99.90;;;;;;5064087;28;20036;-77
2023/08/19 07:30:45;;;;;;;14.13;12.27;;;21.90;99.90;;;;;;5078518;28;20067;-76
2023/08/19 07:33:16;;;;;;;14.18;12.13;;;21.90;99.90;;;;;;5080705;28;20491;-77
2023/08/19 07:35:43;;;;;;;13.15;11.98;;;22.00;99.90;;;;;;5063030;28;20040;-77
2023/08/19 07:38:09;;;;;;;13.07;11.73;;;22.00;99.90;;;;;;5081678;28;20136;-77
2023/08/19 07:40:35;;;;;;;11.48;10.35;;;22.10;99.90;;;;;;5082489;28;20173;-77
2023/08/19 07:43:01;;;;;;;11.18;10.05;;;22.10;99.90;;;;;;5078175;28;20438;-76
2023/08/19 07:45:27;;;;;;;11.55;10.43;;;22.20;99.90;;;;;;5060902;28;20164;-77
2023/08/19 07:47:53;;;;;;;10.80;9.80;;;22.20;99.90;;;;;;5062617;28;20074;-77
2023/08/19 07:50:19;;;;;;;11.07;9.98;;;22.20;99.90;;;;;;5061742;28;20047;-77
2023/08/19 07:52:45;;;;;;;10.40;9.43;;;22.30;99.90;;;;;;5079535;28;20469;-77
2023/08/19 07:55:10;;;;;;;11.70;10.07;;;22.30;99.90;;;;;;5083284;28;20486;-77
2023/08/19 07:57:36;;;;;;;12.32;10.00;;;22.40;99.90;;;;;;5064607;28;20514;-77
2023/08/19 08:00:06;;;;;;;9.55;8.65;;;22.50;99.90;;;;;;5064506;28;20052;-77
2023/08/19 08:02:31;;;;;;;9.73;8.73;;;22.50;99.90;;;;;;5062646;28;20048;-76
2023/08/19 08:05:02;;;;;;;11.75;10.65;;;22.60;99.90;;;;;;5083900;28;20112;-76
2023/08/19 08:07:28;;;;;;;12.45;10.05;;;22.70;99.90;;;;;;5085892;28;20289;-76
2023/08/19 08:09:53;;;;;;;9.88;8.93;;;22.80;99.90;;;;;;5083344;28;20428;-76
2023/08/19 08:12:19;;;;;;;10.18;9.15;;;22.80;99.90;;;;;;5083043;28;20078;-76
2023/08/19 08:14:45;;;;;;;11.00;9.40;;;22.80;99.90;;;;;;5064140;28;20044;-76
2023/08/19 08:17:11;;;;;;;10.00;9.10;;;22.80;99.90;;;;;;5048143;28;20064;-76
2023/08/19 08:19:38;;;;;;;10.35;9.30;;;22.90;99.90;;;;;;5043990;28;20280;-76
2023/08/19 08:22:05;;;;;;;11.05;9.02;;;23.00;99.90;;;;;;5066885;28;20052;-76
2023/08/19 08:24:31;;;;;;;10.57;8.70;;;23.00;99.90;;;;;;5068555;28;20123;-77
2023/08/19 08:26:57;;;;;;;9.88;8.07;;;23.00;99.90;;;;;;5059787;28;20155;-76
2023/08/19 08:29:24;;;;;;;9.23;8.30;;;23.10;99.90;;;;;;5064625;28;20123;-76
2023/08/19 08:31:49;;;;;;;8.95;8.10;;;23.20;99.90;;;;;;5051230;28;20101;-76
2023/08/19 08:34:15;;;;;;;9.05;8.20;;;23.30;99.90;;;;;;5069526;28;20064;-76
2023/08/19 08:36:41;;;;;;;10.88;8.38;;;23.40;99.90;;;;;;5046165;28;20109;-76
2023/08/19 08:39:10;;;;;;;9.60;8.68;;;23.40;99.90;;;;;;5059481;28;20472;-75
2023/08/19 08:41:39;;;;;;;8.57;7.78;;;23.40;99.90;;;;;;5062777;28;20029;-76
2023/08/19 08:44:09;;;;;;;12.10;8.87;;;23.40;99.90;;;;;;5046347;28;20510;-76
2023/08/19 08:46:36;;;;;;;8.88;7.97;;;23.50;99.90;;;;;;5070119;28;20040;-77
2023/08/19 08:49:03;;;;;;;8.93;8.02;;;23.50;99.90;;;;;;5056899;28;20111;-76
2023/08/19 08:51:29;;;;;;;9.65;8.32;;;23.60;99.90;;;;;;5063306;28;20080;-76
2023/08/19 08:53:59;;;;;;;10.13;8.43;;;23.70;99.90;;;;;;5061132;28;20072;-76
2023/08/19 08:56:25;;;;;;;9.32;7.68;;;23.80;99.90;;;;;;5064027;28;20088;-76
2023/08/19 08:58:51;;;;;;;8.98;7.65;;;23.90;99.90;;;;;;5061142;28;20506;-77
2023/08/19 09:01:19;;;;;;;10.00;7.95;;;24.00;99.90;;;;;;5040453;28;20047;-76
2023/08/19 09:03:46;;;;;;;9.23;6.80;;;24.10;99.90;;;;;;5061263;28;20040;-75
2023/08/19 09:06:16;;;;;;;9.10;7.47;;;24.20;99.90;;;;;;5061398;28;20041;-76
2023/08/19 09:08:48;;;;;;;9.85;7.95;;;24.30;99.90;;;;;;5047102;28;20060;-76
2023/08/19 09:11:20;;;;;;;10.07;8.15;;;24.40;99.90;;;;;;5040140;28;20056;-76
2023/08/19 09:13:52;;;;;;;11.15;8.18;;;24.50;99.90;;;;;;5048689;28;20044;-75
2023/08/19 09:16:18;;;;;;;9.40;7.45;;;24.60;99.90;;;;;;5062891;28;20543;-76
2023/08/19 09:18:44;;;;;;;8.88;7.95;;;24.50;99.90;;;;;;5080461;28;20036;-76
2023/08/19 09:21:10;;;;;;;8.88;7.65;;;24.50;99.90;;;;;;5062781;28;20040;-76
2023/08/19 09:23:39;;;;;;;7.80;6.97;;;24.70;99.90;;;;;;5078888;28;20076;-77
2023/08/19 09:26:08;;;;;;;9.32;7.90;;;24.70;99.90;;;;;;5076843;28;20040;-76
2023/08/19 09:28:34;;;;;;;9.77;7.47;;;24.80;99.90;;;;;;5079882;28;20131;-76
2023/08/19 09:30:59;;;;;;;9.32;8.20;;;24.90;99.90;;;;;;5079330;28;20054;-76
2023/08/19 09:33:26;;;;;;;9.02;8.05;;;24.90;99.90;;;;;;5080300;28;20066;-77
2023/08/19 09:36:02;;;;;;;10.70;7.97;;;24.90;99.90;;;;;;5073674;28;20161;-77
2023/08/19 09:38:28;;;;;;;8.63;7.32;;;24.90;99.90;;;;;;5080092;28;20042;-76
2023/08/19 09:41:01;;;;;;;10.60;7.70;;;24.90;99.90;;;;;;5081719;28;20048;-76
2023/08/19 09:43:27;;;;;;;8.95;7.63;;;25.00;99.90;;;;;;5080662;28;20146;-76
2023/08/19 09:46:00;;;;;;;8.73;7.35;;;25.00;99.90;;;;;;5062783;28;20127;-76
2023/08/19 09:48:26;;;;;;;8.00;6.80;;;25.00;99.90;;;;;;5079267;28;20040;-76
2023/08/19 09:50:53;;;;;;;8.63;7.00;;;25.10;99.90;;;;;;5061234;28;20067;-77
2023/08/19 09:53:19;;;;;;;8.52;7.63;;;25.20;99.90;;;;;;5064497;28;20047;-77
2023/08/19 09:55:46;;;;;;;10.98;7.60;;;25.20;99.90;;;;;;5080736;28;20055;-76
2023/08/19 09:58:12;;;;;;;9.63;8.00;;;25.30;99.90;;;;;;5079475;28;20128;-76
2023/08/19 10:00:41;;;;;;;9.65;7.50;;;25.30;99.90;;;;;;5078910;28;21104;-76
2023/08/19 10:03:10;;;;;;;8.57;7.55;;;25.30;99.90;;;;;;5078212;28;20051;-76
2023/08/19 10:05:41;;;;;;;9.38;7.40;;;25.20;99.90;;;;;;5058233;28;20055;-76
2023/08/19 10:08:18;;;;;;;13.10;9.35;;;25.20;99.90;;;;;;5078223;28;20043;-76
2023/08/19 10:10:45;;;;;;;11.15;8.77;;;25.10;99.90;;;;;;5062511;28;20048;-76
2023/08/19 10:13:12;;;;;;;10.70;8.63;;;25.00;99.90;;;;;;5060903;28;20087;-76
2023/08/19 10:15:41;;;;;;;12.77;11.40;;;24.90;99.90;;;;;;5058582;28;20044;-76
2023/08/19 10:18:30;;;;;;;10.95;9.90;;;24.90;99.90;;;;;;5064071;28;20044;-76
2023/08/19 10:21:00;;;;;;;11.52;10.02;;;24.80;99.90;;;;;;5057372;28;20045;-76
2023/08/19 10:23:27;;;;;;;10.32;9.23;;;24.70;99.90;;;;;;5058636;28;20112;-76
2023/08/19 10:25:53;;;;;;;11.57;10.30;;;24.60;99.90;;;;;;5057901;28;20063;-76
2023/08/19 10:28:24;;;;;;;11.85;10.25;;;24.50;99.90;;;;;;5060143;28;20041;-76
2023/08/19 10:31:10;;;;;;;13.27;11.82;;;24.50;99.90;;;;;;5051837;28;20052;-76
2023/08/19 10:33:40;;;;;;;11.90;10.70;;;24.60;99.90;;;;;;5036974;28;20515;-76
2023/08/19 10:36:08;;;;;;;12.43;11.15;;;24.60;99.90;;;;;;5063165;28;20062;-76
2023/08/19 10:39:00;;;;;;;14.35;12.52;;;24.50;99.90;;;;;;5043050;28;20083;-76
2023/08/19 10:41:50;;;;;;;13.20;11.90;;;24.60;99.90;;;;;;5046000;28;20045;-77
2023/08/19 10:44:17;;;;;;;13.35;11.95;;;24.50;99.90;;;;;;5065573;28;20056;-77
2023/08/19 10:46:49;;;;;;;12.85;11.55;;;24.50;99.90;;;;;;5067241;28;20063;-77
2023/08/19 10:49:19;;;;;;;13.23;11.73;;;24.50;99.90;;;;;;5048317;28;20037;-77
2023/08/19 10:51:51;;;;;;;14.32;12.15;;;24.40;99.90;;;;;;5068764;28;20078;-77
2023/08/19 10:54:35;;;;;;;15.35;12.98;;;24.40;99.90;;;;;;5045328;28;20135;-77
2023/08/19 10:57:15;;;;;;;14.70;12.98;;;24.50;99.90;;;;;;5050329;28;20115;-77
2023/08/19 10:59:43;;;;;;;15.30;13.85;;;24.50;99.90;;;;;;5059472;28;20473;-77
2023/08/19 11:02:10;;;;;;;16.58;14.55;;;24.50;99.90;;;;;;5061365;28;20049;-78
2023/08/19 11:04:41;;;;;;;15.60;13.85;;;24.50;99.90;;;;;;5052887;28;20036;-77
2023/08/19 11:07:07;;;;;;;15.88;14.20;;;24.60;99.90;;;;;;5064725;28;20453;-77
2023/08/19 11:09:34;;;;;;;15.18;13.77;;;24.60;99.90;;;;;;5051740;28;20104;-78
2023/08/19 11:12:01;;;;;;;16.50;14.98;;;24.70;99.90;;;;;;5045362;28;20032;-77
2023/08/19 11:14:27;;;;;;;15.57;14.23;;;24.90;99.90;;;;;;5076247;28;20085;-77
2023/08/19 11:16:54;;;;;;;16.38;14.07;;;25.00;99.90;;;;;;5080047;28;20044;-77
2023/08/19 11:19:20;;;;;;;17.33;14.38;;;25.20;99.90;;;;;;5080016;28;20033;-77
2023/08/19 11:21:47;;;;;;;16.75;15.15;;;25.30;99.90;;;;;;5081011;28;20101;-77
2023/08/19 11:24:13;;;;;;;16.35;14.80;;;25.40;99.90;;;;;;5066397;28;20055;-77
2023/08/19 11:26:40;;;;;;;15.50;13.90;;;25.60;99.90;;;;;;5066664;28;20036;-77
2023/08/19 11:29:09;;;;;;;18.98;15.57;;;25.60;99.90;;;;;;5084045;28;20071;-77
2023/08/19 11:31:41;;;;;;;17.10;15.40;;;25.60;99.90;;;;;;5081316;28;20043;-77
2023/08/19 11:34:14;;;;;;;17.35;15.52;;;25.60;99.90;;;;;;5081974;28;20177;-77
2023/08/19 11:36:43;;;;;;;16.35;14.82;;;25.60;99.90;;;;;;5061324;28;20719;-77
2023/08/19 11:39:09;;;;;;;18.73;16.90;;;25.70;99.90;;;;;;5066972;28;20047;-76
2023/08/19 11:41:35;;;;;;;18.65;16.73;;;25.70;99.90;;;;;;5079968;28;20062;-77
2023/08/19 11:44:03;;;;;;;17.73;16.20;;;25.70;99.90;;;;;;5075681;28;20047;-76
2023/08/19 11:46:29;;;;;;;19.92;17.92;;;25.70;99.90;;;;;;5064146;28;20534;-77
2023/08/19 11:49:05;;;;;;;19.05;17.42;;;25.80;99.90;;;;;;5063557;28;20051;-77
2023/08/19 11:51:31;;;;;;;19.60;17.50;;;25.90;99.90;;;;;;5064012;28;20043;-77
2023/08/19 11:54:10;;;;;;;19.60;17.85;;;26.00;99.90;;;;;;5081795;28;20051;-76
2023/08/19 11:56:46;;;;;;;20.10;18.15;;;26.20;99.90;;;;;;5062044;28;20063;-77
2023/08/19 11:59:11;;;;;;;23.17;21.17;;;26.40;99.90;;;;;;5083224;28;20220;-77
2023/08/19 12:01:40;;;;;;;28.02;25.60;;;26.60;99.90;;;;;;5081856;28;20048;-77
2023/08/19 12:04:11;;;;;;;27.92;25.42;;;26.80;99.90;;;;;;5080993;28;20040;-77
2023/08/19 12:06:38;;;;;;;30.70;28.10;;;26.70;99.90;;;;;;5081780;28;20055;-76
2023/08/19 12:09:04;;;;;;;27.25;24.85;;;26.60;99.90;;;;;;5082053;28;20079;-78
2023/08/19 12:11:30;;;;;;;27.98;25.63;;;26.70;99.90;;;;;;5063295;28;20055;-77
2023/08/19 12:13:56;;;;;;;29.67;27.15;;;26.70;99.90;;;;;;5081301;28;20147;-77
2023/08/19 12:16:22;;;;;;;30.27;27.58;;;26.70;99.90;;;;;;5066343;28;20101;-77
2023/08/19 12:18:48;;;;;;;30.10;27.50;;;26.80;99.90;;;;;;5064381;28;20040;-78
2023/08/19 12:21:14;;;;;;;30.27;27.75;;;26.80;99.90;;;;;;5082475;28;20048;-77
2023/08/19 12:23:40;;;;;;;30.15;27.55;;;26.70;99.90;;;;;;5083479;28;20131;-78
2023/08/19 12:26:06;;;;;;;28.30;25.83;;;26.60;99.90;;;;;;5084573;28;20032;-77
2023/08/19 12:28:32;;;;;;;30.88;28.23;;;26.50;99.90;;;;;;5083329;28;20128;-77
2023/08/19 12:30:57;;;;;;;38.80;35.25;;;26.40;99.90;;;;;;5080494;28;20126;-77
2023/08/19 12:33:24;;;;;;;38.33;34.78;;;26.30;99.90;;;;;;5065902;28;20498;-77